Rawlins, Wyoming
Current Conditions -  °F | °C
As of 11:53 AM on Friday 28 Nov 2014 (Local Time) from KRWL Reporting Station
Clear Clear  
Wind Chill: 50°   Ceiling: Unl
Heat Index: 50°   Visibility: 10mi
Dew Point: 15°   Wind: 23mph
Humidity: 25%   Direction: 240°WSW
Pressure: 29.95"   Gusts: 33mph
Location:  41.79°N, 107.23°W
Report Text: KRWL 281853Z AUTO 24020G29KT 10SM CLR 10/M09 A2995 RMK AO2 PK WND 23032/1831 SLP096 T01001094
Loading
Personal Weather Stations






























Interactive Weather Map New forecast layout! Learn more

10-Day Weather Forecast

Advertisements
Track Severe Weather on mobile